Time;durP1;ratioP1;P1;durP2;ratioP2;P2;SDS_P1;SDS_P2;PMS_P1;PMS_P2;Temp;Humidity;BMP_temperature;BMP_pressure;BME280_temperature;BME280_humidity;BME280_pressure;Samples;Min_cycle;Max_cycle;Signal;HPM_P1;HPM_P2
2023/05/26 00:00:04;;;;;;;3.25;1.45;;;;;;;11.41;67.00;103083.81;5076824;27;96792;-28
2023/05/26 00:02:30;;;;;;;5.32;0.93;;;;;;;11.25;67.67;103068.94;5076585;27;96728;-28
2023/05/26 00:04:59;;;;;;;3.03;0.95;;;;;;;11.19;66.77;103075.41;5076786;27;98017;-28
2023/05/26 00:07:25;;;;;;;5.38;1.13;;;;;;;11.12;67.96;103075.63;5076990;27;101017;-28
2023/05/26 00:09:50;;;;;;;7.78;1.35;;;;;;;11.12;67.63;103083.78;5080183;27;96707;-28
2023/05/26 00:12:17;;;;;;;7.93;1.20;;;;;;;11.09;67.15;103079.31;5098594;27;96811;-28
2023/05/26 00:14:42;;;;;;;5.93;1.35;;;;;;;11.10;67.51;103083.78;5079345;27;100866;-28
2023/05/26 00:17:08;;;;;;;6.57;1.45;;;;;;;10.98;68.02;103085.03;5098088;27;99428;-28
2023/05/26 00:19:35;;;;;;;4.28;1.13;;;;;;;10.96;67.78;103084.16;5099245;27;96632;-28
2023/05/26 00:22:01;;;;;;;2.38;0.93;;;;;;;10.97;68.35;103091.41;5079992;27;96939;-27
2023/05/26 00:24:26;;;;;;;7.93;1.42;;;;;;;10.93;67.63;103081.56;5079706;27;100058;-27
2023/05/26 00:26:53;;;;;;;3.05;0.77;;;;;;;10.99;68.00;103088.66;5098366;27;97339;-27
2023/05/26 00:29:19;;;;;;;3.10;1.30;;;;;;;10.89;68.58;103079.84;5080000;27;96530;-29
2023/05/26 00:31:44;;;;;;;2.50;1.13;;;;;;;10.89;68.37;103074.44;5098576;27;96865;-28
2023/05/26 00:34:09;;;;;;;7.82;1.10;;;;;;;10.97;68.74;103095.94;5097886;27;97963;-27
2023/05/26 00:36:35;;;;;;;6.68;1.30;;;;;;;10.90;68.44;103081.66;5098144;27;100806;-29
2023/05/26 00:39:00;;;;;;;2.80;0.85;;;;;;;10.94;68.29;103086.06;5097907;27;96516;-28
2023/05/26 00:41:26;;;;;;;2.75;0.95;;;;;;;10.90;68.52;103095.19;5098422;27;96843;-28
2023/05/26 00:43:52;;;;;;;6.95;1.58;;;;;;;10.90;68.72;103097.03;5079220;27;100998;-27
2023/05/26 00:46:18;;;;;;;5.78;1.13;;;;;;;10.94;68.04;103102.34;5078937;27;101186;-27
2023/05/26 00:48:43;;;;;;;2.70;0.85;;;;;;;10.89;68.62;103095.22;5098435;27;96780;-28
2023/05/26 00:51:11;;;;;;;6.07;1.10;;;;;;;10.92;68.68;103089.75;5098499;27;96538;-27
2023/05/26 00:53:43;;;;;;;4.30;1.42;;;;;;;10.82;69.46;103083.66;5079208;27;101007;-28
2023/05/26 00:56:15;;;;;;;2.67;0.85;;;;;;;10.84;68.60;103089.94;5079776;27;101389;-27
2023/05/26 00:58:42;;;;;;;2.05;0.70;;;;;;;10.76;68.21;103094.69;5079400;27;96726;-28
2023/05/26 01:01:07;;;;;;;7.28;1.65;;;;;;;10.74;68.62;103096.53;5079477;27;96844;-27
2023/05/26 01:03:33;;;;;;;2.58;0.73;;;;;;;10.69;68.46;103087.63;5078571;27;100792;-29
2023/05/26 01:05:58;;;;;;;6.38;1.05;;;;;;;10.67;68.75;103094.91;5097834;27;97833;-28
2023/05/26 01:08:24;;;;;;;3.40;0.95;;;;;;;10.62;69.71;103090.50;5098026;27;96594;-27
2023/05/26 01:10:52;;;;;;;3.95;1.13;;;;;;;10.69;68.76;103098.47;5079273;27;96811;-27
2023/05/26 01:13:24;;;;;;;5.03;1.10;;;;;;;10.68;69.22;103102.09;5078398;27;100846;-27
2023/05/26 01:15:57;;;;;;;3.65;0.85;;;;;;;10.68;69.46;103097.59;5097354;27;97226;-27
2023/05/26 01:18:31;;;;;;;4.70;1.10;;;;;;;10.68;68.22;103096.69;5079265;27;96654;-28
2023/05/26 01:21:05;;;;;;;5.18;1.23;;;;;;;10.59;69.38;103090.59;5078761;27;96776;-27
2023/05/26 01:23:58;;;;;;;3.72;0.52;;;;;;;10.62;68.55;103106.75;5078669;27;100824;-28
2023/05/26 01:26:44;;;;;;;1.98;0.57;;;;;;;10.53;69.97;103109.69;5078719;27;99343;-28
2023/05/26 01:29:16;;;;;;;2.85;0.70;;;;;;;10.48;69.64;103100.78;5097360;27;96500;-28
2023/05/26 01:31:42;;;;;;;4.32;1.02;;;;;;;10.43;69.94;103089.19;5078851;27;96848;-27
2023/05/26 01:34:07;;;;;;;2.75;0.60;;;;;;;10.49;69.39;103104.41;5096235;27;97993;-28
2023/05/26 01:36:33;;;;;;;2.65;0.88;;;;;;;10.48;69.91;103097.19;5097474;27;97403;-28
2023/05/26 01:38:59;;;;;;;1.80;0.68;;;;;;;10.38;69.99;103100.13;5097593;27;96539;-28
2023/05/26 01:41:42;;;;;;;3.78;1.17;;;;;;;10.38;69.71;103110.09;5078742;27;96816;-28
2023/05/26 01:44:26;;;;;;;5.40;1.23;;;;;;;10.35;69.43;103107.47;5078472;27;101216;-28
2023/05/26 01:46:52;;;;;;;4.57;1.23;;;;;;;10.29;70.64;103097.63;5097624;27;98052;-28
2023/05/26 01:49:27;;;;;;;10.27;0.77;;;;;;;10.35;69.79;103104.75;5097508;27;96447;-28
2023/05/26 01:51:56;;;;;;;14.82;1.92;;;;;;;10.32;70.34;103107.50;5097407;27;96566;-28
2023/05/26 01:54:24;;;;;;;3.58;0.95;;;;;;;10.27;70.20;103106.69;5077860;27;101019;-28
2023/05/26 01:56:52;;;;;;;3.13;0.90;;;;;;;10.27;70.39;103113.00;5096593;27;99896;-29
2023/05/26 01:59:19;;;;;;;4.45;1.10;;;;;;;10.30;69.86;103112.97;5078594;27;96522;-28
2023/05/26 02:01:45;;;;;;;4.95;0.90;;;;;;;10.23;70.24;103107.72;5078565;27;96803;-27
2023/05/26 02:04:12;;;;;;;10.18;1.38;;;;;;;10.21;69.60;103111.34;5096893;27;97436;-29
2023/05/26 02:06:38;;;;;;;2.75;1.20;;;;;;;10.18;70.98;103127.66;5078047;27;100777;-29
2023/05/26 02:09:04;;;;;;;2.33;0.88;;;;;;;10.20;71.04;103122.19;5078506;27;96537;-27
2023/05/26 02:11:29;;;;;;;4.82;1.13;;;;;;;10.21;69.97;103116.75;5097284;27;96719;-29
2023/05/26 02:13:55;;;;;;;1.23;0.57;;;;;;;10.17;70.22;103119.56;5096442;27;98006;-28
2023/05/26 02:16:21;;;;;;;4.25;1.15;;;;;;;10.22;69.93;103125.78;5096810;27;97314;-28
2023/05/26 02:18:47;;;;;;;6.38;1.40;;;;;;;10.14;70.42;103117.81;5096448;27;96598;-29
2023/05/26 02:21:13;;;;;;;2.55;0.85;;;;;;;10.11;70.56;103120.63;5078210;27;96787;-28
2023/05/26 02:23:38;;;;;;;1.85;0.68;;;;;;;10.08;70.21;103123.41;5096523;27;97897;-28
2023/05/26 02:26:04;;;;;;;4.53;0.88;;;;;;;10.10;71.17;103126.94;5096356;27;97168;-28
2023/05/26 02:28:29;;;;;;;7.78;1.27;;;;;;;10.13;70.36;103134.09;5078027;27;96598;-27
2023/05/26 02:30:55;;;;;;;4.05;1.05;;;;;;;10.12;70.33;103135.03;5096318;27;96765;-28
2023/05/26 02:33:20;;;;;;;1.35;0.63;;;;;;;10.13;70.51;103131.41;5095458;27;99205;-28
2023/05/26 02:35:45;;;;;;;5.07;1.08;;;;;;;10.14;70.25;103139.50;5096447;27;98032;-27
2023/05/26 02:38:11;;;;;;;5.00;1.42;;;;;;;10.09;69.85;103132.41;5096586;27;96477;-29
2023/05/26 02:40:36;;;;;;;4.68;0.88;;;;;;;10.05;70.80;103134.28;5096550;27;96782;-28
2023/05/26 02:43:02;;;;;;;2.63;0.95;;;;;;;10.02;70.36;103123.53;5095618;27;98489;-28
2023/05/26 02:45:27;;;;;;;4.28;1.30;;;;;;;9.99;70.16;103132.63;5096162;27;97758;-27
2023/05/26 02:47:52;;;;;;;8.15;1.08;;;;;;;9.91;70.98;103128.28;5078127;27;96607;-28
2023/05/26 02:50:19;;;;;;;4.20;1.17;;;;;;;9.95;71.79;103130.00;5096125;27;97676;-29
2023/05/26 02:52:44;;;;;;;5.50;1.02;;;;;;;9.96;71.21;103135.41;5095799;27;99428;-28
2023/05/26 02:55:11;;;;;;;7.00;0.82;;;;;;;9.96;70.76;103139.91;5095954;27;99319;-28
2023/05/26 02:57:37;;;;;;;6.38;0.95;;;;;;;9.95;70.39;103138.13;5077686;27;96577;-29
2023/05/26 03:00:03;;;;;;;4.18;1.10;;;;;;;9.88;70.93;103129.25;5078108;27;96778;-28
2023/05/26 03:02:28;;;;;;;3.13;0.77;;;;;;;9.96;70.82;103137.19;5077222;27;101474;-28
2023/05/26 03:04:53;;;;;;;4.18;0.80;;;;;;;9.89;70.67;103135.53;5095410;27;103550;-28
2023/05/26 03:07:18;;;;;;;5.53;0.98;;;;;;;9.83;70.92;103130.28;5095531;27;96580;-27
2023/05/26 03:09:44;;;;;;;2.60;1.13;;;;;;;9.85;70.97;103136.56;5096256;27;96769;-29
2023/05/26 03:12:12;;;;;;;6.13;0.98;;;;;;;9.83;71.56;103128.47;5095837;27;98003;-33
2023/05/26 03:14:37;;;;;;;2.28;0.93;;;;;;;9.82;71.63;103132.09;5095444;27;99313;-28
2023/05/26 03:17:03;;;;;;;2.05;0.82;;;;;;;9.80;71.05;103131.25;5095851;27;96594;-28
2023/05/26 03:19:28;;;;;;;2.88;1.02;;;;;;;9.78;71.58;103139.38;5096087;27;96706;-27
2023/05/26 03:21:55;;;;;;;4.28;1.10;;;;;;;9.64;71.26;103125.25;5095812;27;97964;-28
2023/05/26 03:24:20;;;;;;;6.00;1.13;;;;;;;9.68;71.90;103132.41;5077348;27;101199;-29
2023/05/26 03:26:46;;;;;;;4.97;1.27;;;;;;;9.70;71.23;103135.97;5095874;27;96634;-29
2023/05/26 03:29:11;;;;;;;6.28;0.90;;;;;;;9.70;72.02;103135.97;5077355;27;96790;-28
2023/05/26 03:31:37;;;;;;;5.07;0.90;;;;;;;9.73;71.66;103144.00;5094929;27;97882;-28
2023/05/26 03:34:02;;;;;;;6.43;1.40;;;;;;;9.73;71.35;103143.13;5094614;27;99612;-28
2023/05/26 03:36:28;;;;;;;4.35;0.60;;;;;;;9.74;71.74;103145.78;5077203;27;96520;-28
2023/05/26 03:38:53;;;;;;;1.33;0.70;;;;;;;9.71;71.73;103144.97;5077337;27;96740;-28
2023/05/26 03:41:19;;;;;;;2.78;0.65;;;;;;;9.72;71.23;103135.91;5095291;27;98748;-28
2023/05/26 03:43:44;;;;;;;6.57;1.02;;;;;;;9.68;72.01;103137.81;5097457;27;99597;-28
2023/05/26 03:46:09;;;;;;;5.03;1.00;;;;;;;9.67;71.35;103136.00;5099541;27;96576;-28
2023/05/26 03:48:35;;;;;;;5.95;0.70;;;;;;;9.68;71.82;103145.03;5099884;27;96899;-28
2023/05/26 03:51:00;;;;;;;1.60;0.68;;;;;;;9.62;71.72;103150.56;5098768;27;99196;-28
2023/05/26 03:53:26;;;;;;;6.57;1.02;;;;;;;9.64;72.58;103146.91;5098915;27;97299;-27
2023/05/26 03:55:51;;;;;;;3.25;0.98;;;;;;;9.61;71.46;103146.09;5098288;27;96713;-28
2023/05/26 03:58:17;;;;;;;5.65;1.20;;;;;;;9.62;72.34;103156.84;5099236;27;96746;-28
2023/05/26 04:00:42;;;;;;;7.05;1.38;;;;;;;9.54;71.96;103135.38;5098694;27;99224;-28
2023/05/26 04:03:07;;;;;;;5.00;1.08;;;;;;;9.57;71.00;103140.72;5098605;27;98902;-28
2023/05/26 04:05:33;;;;;;;3.20;0.98;;;;;;;9.66;72.14;103161.28;5099118;27;96699;-29
2023/05/26 04:07:58;;;;;;;4.72;0.93;;;;;;;9.68;71.40;103158.56;5099174;27;96758;-28
2023/05/26 04:10:24;;;;;;;2.60;0.73;;;;;;;9.60;71.61;103156.00;5079735;27;100869;-27
2023/05/26 04:12:49;;;;;;;5.68;0.68;;;;;;;9.63;71.85;103155.03;5098584;27;99093;-28
2023/05/26 04:15:14;;;;;;;3.95;1.15;;;;;;;9.61;71.42;103155.09;5098923;27;96451;-27
2023/05/26 04:17:40;;;;;;;2.60;0.82;;;;;;;9.60;71.80;103164.13;5098776;27;96806;-28
2023/05/26 04:20:07;;;;;;;1.00;0.45;;;;;;;9.56;72.14;103152.47;5098120;27;97857;-28
2023/05/26 04:22:32;;;;;;;5.80;0.98;;;;;;;9.53;71.63;103155.25;5079882;27;101698;-28
2023/05/26 04:24:57;;;;;;;3.88;1.13;;;;;;;9.57;72.44;103166.88;5098360;27;96732;-29
2023/05/26 04:27:24;;;;;;;5.30;1.10;;;;;;;9.57;72.32;103159.66;5098870;27;96886;-27
2023/05/26 04:29:50;;;;;;;5.43;1.08;;;;;;;9.66;71.94;103161.28;5098372;27;97869;-27
2023/05/26 04:32:16;;;;;;;2.67;1.05;;;;;;;9.58;72.60;103165.94;5098138;27;97873;-29
2023/05/26 04:34:44;;;;;;;3.10;1.10;;;;;;;9.60;72.31;103169.53;5098023;27;96713;-29
2023/05/26 04:37:09;;;;;;;2.20;0.73;;;;;;;9.62;72.24;103167.69;5080213;27;96769;-27
2023/05/26 04:39:35;;;;;;;4.95;1.20;;;;;;;9.64;72.09;103165.84;5098409;27;97254;-29
2023/05/26 04:42:03;;;;;;;5.10;1.05;;;;;;;9.64;72.04;103162.25;5098173;27;97718;-28
2023/05/26 04:44:29;;;;;;;6.38;0.90;;;;;;;9.69;72.48;103179.28;5079129;27;96606;-28
2023/05/26 04:46:54;;;;;;;6.30;1.10;;;;;;;9.66;72.52;103177.53;5098209;27;96774;-27
2023/05/26 04:49:22;;;;;;;2.22;1.08;;;;;;;9.62;72.04;103169.50;5098219;27;97846;-28
2023/05/26 04:51:54;;;;;;;2.00;0.85;;;;;;;9.62;72.09;103166.81;5079195;27;101054;-27
2023/05/26 04:54:20;;;;;;;5.82;1.15;;;;;;;9.72;71.70;103174.69;5078543;27;96464;-28
2023/05/26 04:56:45;;;;;;;4.70;1.02;;;;;;;9.75;72.02;103185.47;5079725;27;96894;-28
2023/05/26 04:59:12;;;;;;;5.30;1.33;;;;;;;9.74;71.25;103182.78;5098079;27;97899;-27
2023/05/26 05:01:38;;;;;;;3.90;1.00;;;;;;;9.77;71.94;103193.53;5098135;27;97773;-28
2023/05/26 05:04:03;;;;;;;2.08;0.75;;;;;;;9.75;72.22;103190.00;5098028;27;96515;-28
2023/05/26 05:06:28;;;;;;;2.80;0.93;;;;;;;9.83;71.79;103197.94;5097963;27;96797;-28
2023/05/26 05:08:54;;;;;;;2.92;0.95;;;;;;;9.82;72.42;103196.16;5097121;27;97952;-27
2023/05/26 05:11:19;;;;;;;4.63;0.98;;;;;;;9.89;71.56;103200.50;5097749;27;96479;-28
2023/05/26 05:13:44;;;;;;;6.05;1.15;;;;;;;9.91;72.12;103209.50;5097548;27;96706;-28
2023/05/26 05:16:10;;;;;;;3.00;0.82;;;;;;;9.95;71.00;103209.41;5097947;27;96801;-27
2023/05/26 05:18:35;;;;;;;4.57;0.93;;;;;;;9.99;71.71;103202.13;5097350;27;99756;-27
2023/05/26 05:21:01;;;;;;;4.03;1.13;;;;;;;9.97;71.67;103201.25;5097350;27;99593;-29
2023/05/26 05:23:26;;;;;;;1.70;0.88;;;;;;;10.01;71.74;103211.13;5097722;27;96640;-28
2023/05/26 05:25:52;;;;;;;2.70;0.95;;;;;;;10.07;71.27;103204.66;5097853;27;96790;-27
2023/05/26 05:28:18;;;;;;;2.78;0.90;;;;;;;10.15;71.34;103214.41;5078860;27;101045;-28
2023/05/26 05:30:43;;;;;;;3.72;0.82;;;;;;;10.20;71.02;103226.03;5097452;27;97258;-28
2023/05/26 05:33:08;;;;;;;2.38;0.82;;;;;;;10.17;71.44;103207.13;5097194;27;96792;-29
2023/05/26 05:35:34;;;;;;;4.50;1.17;;;;;;;10.26;71.30;103208.75;5097401;27;96808;-27
2023/05/26 05:38:01;;;;;;;4.88;1.10;;;;;;;10.32;70.84;103218.56;5096720;27;99058;-27
2023/05/26 05:40:26;;;;;;;3.38;0.90;;;;;;;10.34;71.33;103211.31;5097008;27;99743;-27
2023/05/26 05:42:51;;;;;;;6.40;1.48;;;;;;;10.49;70.89;103221.81;5097300;27;96615;-28
2023/05/26 05:45:17;;;;;;;2.13;0.70;;;;;;;10.53;71.14;103223.50;5097512;27;96798;-29
2023/05/26 05:47:42;;;;;;;8.38;1.35;;;;;;;10.66;70.13;103229.56;5096303;27;101588;-27
2023/05/26 05:50:07;;;;;;;4.28;0.88;;;;;;;10.77;69.88;103221.16;5096815;27;101917;-28
2023/05/26 05:52:33;;;;;;;8.77;1.20;;;;;;;10.84;69.89;103225.50;5096884;27;96766;-27
2023/05/26 05:54:58;;;;;;;2.70;0.80;;;;;;;10.88;69.48;103220.91;5097317;27;96810;-27
2023/05/26 05:57:24;;;;;;;5.38;1.50;;;;;;;10.91;69.58;103224.41;5096341;27;99989;-28
2023/05/26 05:59:49;;;;;;;3.15;1.20;;;;;;;10.98;69.29;103236.00;5096709;27;98845;-28
2023/05/26 06:02:14;;;;;;;4.05;0.77;;;;;;;11.05;69.03;103233.09;5096991;27;96725;-31
2023/05/26 06:04:40;;;;;;;6.60;0.82;;;;;;;11.11;68.66;103226.66;5094327;27;96859;-33
2023/05/26 06:07:05;;;;;;;7.30;1.48;;;;;;;11.15;68.44;103232.88;5093929;27;97393;-28
2023/05/26 06:09:30;;;;;;;6.25;1.30;;;;;;;11.23;68.34;103242.59;5094538;27;97734;-30
2023/05/26 06:11:56;;;;;;;13.13;1.77;;;;;;;11.33;68.26;103232.41;5094806;27;96748;-30
2023/05/26 06:14:21;;;;;;;9.63;1.70;;;;;;;11.43;67.77;103243.91;5094952;27;96638;-30
2023/05/26 06:16:46;;;;;;;2.50;0.90;;;;;;;11.35;67.28;103235.97;5094133;27;99625;-30
2023/05/26 06:19:12;;;;;;;2.08;0.88;;;;;;;11.39;66.90;103228.63;5096065;27;97920;-28
2023/05/26 06:21:37;;;;;;;3.05;0.90;;;;;;;11.41;67.39;103240.31;5096119;27;97923;-28
2023/05/26 06:24:02;;;;;;;9.20;1.20;;;;;;;11.46;66.86;103233.88;5096745;27;96811;-28
2023/05/26 06:26:28;;;;;;;3.25;0.95;;;;;;;11.54;66.60;103243.63;5096259;27;99727;-29
2023/05/26 06:28:53;;;;;;;3.17;0.73;;;;;;;11.45;66.78;103226.63;5096364;27;97256;-27
2023/05/26 06:31:18;;;;;;;4.72;0.93;;;;;;;11.55;66.87;103229.09;5096375;27;96505;-29
2023/05/26 06:33:44;;;;;;;2.72;0.85;;;;;;;11.59;66.44;103236.25;5096273;27;96865;-28
2023/05/26 06:36:10;;;;;;;7.28;1.40;;;;;;;11.46;66.49;103239.28;5077442;27;100722;-28
2023/05/26 06:38:35;;;;;;;9.25;1.35;;;;;;;11.54;66.88;103238.19;5077864;27;100910;-28
2023/05/26 06:41:01;;;;;;;4.93;0.70;;;;;;;11.56;66.37;103239.00;5096478;27;96517;-28
2023/05/26 06:43:27;;;;;;;3.65;1.15;;;;;;;11.57;66.43;103238.09;5096311;27;96850;-27
2023/05/26 06:45:52;;;;;;;3.30;0.82;;;;;;;11.64;66.06;103231.56;5095244;27;106711;-28
2023/05/26 06:48:17;;;;;;;3.72;1.15;;;;;;;11.82;66.18;103246.44;5096389;27;96913;-28
2023/05/26 06:50:43;;;;;;;4.43;1.42;;;;;;;11.94;66.00;103245.22;5096254;27;96721;-28
2023/05/26 06:53:08;;;;;;;2.45;1.10;;;;;;;12.03;65.19;103247.69;5096185;27;96845;-28
2023/05/26 06:55:33;;;;;;;4.35;1.33;;;;;;;12.12;65.00;103242.00;5096054;27;97847;-28
2023/05/26 06:57:59;;;;;;;3.90;1.00;;;;;;;12.20;64.51;103234.47;5095935;27;99063;-27
2023/05/26 07:00:24;;;;;;;2.20;0.85;;;;;;;12.36;64.48;103244.91;5096335;27;96626;-27
2023/05/26 07:02:49;;;;;;;7.13;1.85;;;;;;;12.40;63.62;103244.78;5096797;27;96786;-28
2023/05/26 07:05:15;;;;;;;6.45;1.13;;;;;;;12.38;63.81;103243.03;5095751;27;97929;-29
2023/05/26 07:07:40;;;;;;;7.40;1.15;;;;;;;12.30;64.17;103263.19;5095994;27;97711;-28
2023/05/26 07:10:06;;;;;;;9.35;1.55;;;;;;;12.27;64.30;103249.66;5095725;27;96699;-28
2023/05/26 07:12:31;;;;;;;5.93;1.30;;;;;;;12.19;64.59;103259.00;5096323;27;96787;-27
2023/05/26 07:14:56;;;;;;;4.82;1.50;;;;;;;12.15;64.54;103258.19;5095767;27;97889;-29
2023/05/26 07:17:22;;;;;;;8.65;1.33;;;;;;;12.38;64.31;103252.06;5096007;27;97828;-28
2023/05/26 07:19:47;;;;;;;2.85;1.42;;;;;;;12.71;63.78;103250.13;5099832;27;96457;-28
2023/05/26 07:22:13;;;;;;;3.40;1.05;;;;;;;13.02;63.02;103245.53;5099675;27;96770;-28
2023/05/26 07:24:38;;;;;;;4.35;1.17;;;;;;;13.32;62.33;103255.41;5099184;27;99111;-28
2023/05/26 07:27:04;;;;;;;4.45;1.67;;;;;;;13.48;62.02;103242.13;5099575;27;98861;-28
2023/05/26 07:29:29;;;;;;;12.40;3.35;;;;;;;13.63;60.38;103240.69;5099770;27;96695;-28
2023/05/26 07:31:54;;;;;;;5.80;2.33;;;;;;;13.80;60.80;103235.53;5099512;27;96793;-28
2023/05/26 07:34:20;;;;;;;4.20;1.48;;;;;;;13.84;60.85;103241.75;5098373;27;97973;-31
2023/05/26 07:36:45;;;;;;;7.15;1.50;;;;;;;13.69;60.33;103243.22;5099092;27;98158;-28
2023/05/26 07:39:11;;;;;;;3.33;1.10;;;;;;;13.75;60.76;103244.81;5099510;27;96607;-28
2023/05/26 07:41:36;;;;;;;5.53;1.33;;;;;;;13.97;60.30;103243.09;5095475;27;97681;-28
2023/05/26 07:44:02;;;;;;;4.90;1.33;;;;;;;14.11;59.62;103236.22;5097521;27;97513;-29
2023/05/26 07:46:27;;;;;;;3.25;1.13;;;;;;;14.01;59.06;103235.66;5080243;27;100944;-28
2023/05/26 07:48:53;;;;;;;5.18;1.27;;;;;;;13.94;59.77;103248.66;5099614;27;96639;-28
2023/05/26 07:51:19;;;;;;;4.45;1.13;;;;;;;13.91;59.82;103226.94;5080745;27;96846;-28
2023/05/26 07:53:44;;;;;;;3.38;1.17;;;;;;;13.90;59.04;103227.03;5098801;27;99881;-28
2023/05/26 07:56:10;;;;;;;5.07;1.33;;;;;;;13.84;59.36;103241.75;5080163;27;100369;-27
2023/05/26 07:58:37;;;;;;;5.88;1.13;;;;;;;13.99;59.51;103237.56;5098773;27;96526;-28
2023/05/26 08:01:02;;;;;;;6.35;1.10;;;;;;;14.24;58.91;103238.41;5099027;27;96891;-27
2023/05/26 08:03:27;;;;;;;5.13;1.10;;;;;;;14.36;57.99;103236.16;5098961;27;97952;-28
2023/05/26 08:05:53;;;;;;;3.17;1.17;;;;;;;14.51;57.57;103231.94;5098458;27;97826;-29
2023/05/26 08:08:18;;;;;;;7.85;1.38;;;;;;;14.67;56.84;103244.03;5099229;27;96861;-28
2023/05/26 08:10:43;;;;;;;6.18;1.13;;;;;;;14.81;56.74;103236.19;5098938;27;96856;-28
2023/05/26 08:13:09;;;;;;;7.28;1.00;;;;;;;14.79;56.20;103223.56;5098237;27;99725;-28
2023/05/26 08:15:34;;;;;;;10.35;1.58;;;;;;;14.92;56.50;103213.94;5098846;27;99844;-28
2023/05/26 08:18:00;;;;;;;5.50;1.48;;;;;;;15.18;56.02;103226.47;5098792;27;96446;-27
2023/05/26 08:20:25;;;;;;;8.43;2.15;;;;;;;15.23;55.68;103229.88;5098646;27;96802;-28
2023/05/26 08:22:50;;;;;;;7.00;1.23;;;;;;;15.32;55.96;103227.69;5097971;27;97934;-28
2023/05/26 08:25:16;;;;;;;2.70;1.23;;;;;;;15.19;55.08;103228.22;5098305;27;97735;-28
2023/05/26 08:27:41;;;;;;;4.75;1.00;;;;;;;15.32;55.00;103227.69;5080106;27;96722;-28
2023/05/26 08:30:08;;;;;;;5.47;1.65;;;;;;;15.56;55.13;103223.88;5098779;27;96716;-28
2023/05/26 08:32:34;;;;;;;9.23;1.50;;;;;;;15.67;55.03;103215.22;5079335;27;100841;-28
2023/05/26 08:35:00;;;;;;;4.38;1.55;;;;;;;15.85;54.65;103225.34;5097467;27;99470;-28
2023/05/26 08:37:25;;;;;;;4.85;1.35;;;;;;;16.08;54.29;103231.59;5098714;27;96889;-28
2023/05/26 08:39:51;;;;;;;6.53;1.23;;;;;;;16.24;53.54;103226.28;5099033;27;96789;-28
2023/05/26 08:42:21;;;;;;;6.00;1.38;;;;;;;16.32;53.22;103227.69;5098318;27;96925;-27
2023/05/26 08:44:46;;;;;;;7.80;1.48;;;;;;;16.38;53.61;103221.06;5079425;27;101118;-29
2023/05/26 08:47:13;;;;;;;7.78;1.38;;;;;;;16.37;52.29;103222.00;5097910;27;96628;-27
2023/05/26 08:49:49;;;;;;;5.28;1.48;;;;;;;16.41;53.00;103228.22;5098186;27;96892;-28
2023/05/26 08:52:16;;;;;;;6.43;1.05;;;;;;;16.41;51.81;103220.88;5079397;27;100780;-28
2023/05/26 08:54:44;;;;;;;7.25;1.42;;;;;;;16.44;52.74;103226.22;5079323;27;100729;-28
2023/05/26 08:57:11;;;;;;;2.75;1.13;;;;;;;16.46;51.85;103215.19;5079651;27;96668;-28
2023/05/26 08:59:37;;;;;;;3.22;1.15;;;;;;;16.61;50.93;103238.19;5079449;27;96741;-28
2023/05/26 09:02:03;;;;;;;6.40;1.67;;;;;;;16.67;51.96;103237.91;5078918;27;100997;-28
2023/05/26 09:04:30;;;;;;;2.28;0.85;;;;;;;16.77;51.27;103229.13;5097967;27;99075;-27
2023/05/26 09:06:56;;;;;;;2.88;1.10;;;;;;;16.89;51.68;103218.59;5079377;27;96803;-27
2023/05/26 09:09:21;;;;;;;7.45;1.38;;;;;;;16.98;51.12;103223.59;5097964;27;96795;-28
2023/05/26 09:11:46;;;;;;;9.85;1.80;;;;;;;16.87;50.09;103225.97;5097368;27;97933;-28
2023/05/26 09:14:13;;;;;;;6.25;1.40;;;;;;;17.08;50.26;103230.38;5097623;27;97367;-28
2023/05/26 09:16:39;;;;;;;6.18;1.27;;;;;;;17.10;49.45;103231.19;5079047;27;96732;-29
2023/05/26 09:19:05;;;;;;;5.47;1.35;;;;;;;17.19;49.97;103230.72;5079227;27;96908;-27
2023/05/26 09:21:31;;;;;;;3.55;1.27;;;;;;;17.30;49.18;103227.41;5097333;27;99298;-28
2023/05/26 09:23:59;;;;;;;8.80;1.58;;;;;;;17.48;49.84;103227.44;5078681;27;101106;-28
2023/05/26 09:26:33;;;;;;;6.43;1.27;;;;;;;17.63;48.61;103238.44;5079003;27;96756;-28
2023/05/26 09:29:00;;;;;;;3.83;1.40;;;;;;;17.69;49.56;103228.16;5079278;27;96951;-27
2023/05/26 09:31:36;;;;;;;5.97;1.40;;;;;;;17.55;48.79;103229.75;5078303;27;100908;-28
2023/05/26 09:34:01;;;;;;;3.70;1.20;;;;;;;17.66;48.19;103225.56;5078279;27;100883;-28
2023/05/26 09:36:26;;;;;;;4.70;1.25;;;;;;;17.80;48.40;103226.63;5097263;27;96617;-28
2023/05/26 09:38:52;;;;;;;3.70;1.13;;;;;;;17.99;47.99;103225.63;5097474;27;96575;-27
2023/05/26 09:41:19;;;;;;;4.97;1.40;;;;;;;18.09;47.11;103224.16;5096439;27;99754;-28
2023/05/26 09:43:44;;;;;;;5.97;1.55;;;;;;;18.05;47.17;103230.78;5097005;27;99272;-28
2023/05/26 09:46:23;;;;;;;2.92;1.08;;;;;;;17.93;45.94;103220.47;5097184;27;96585;-29
2023/05/26 09:48:50;;;;;;;2.05;1.23;;;;;;;17.99;46.65;103217.38;5078788;27;96884;-27
2023/05/26 09:51:19;;;;;;;6.45;1.95;;;;;;;18.22;47.13;103206.03;5096897;27;100095;-27
2023/05/26 09:53:45;;;;;;;7.32;1.35;;;;;;;18.30;45.67;103224.78;5097274;27;98304;-28
2023/05/26 09:56:11;;;;;;;5.93;1.00;;;;;;;18.49;46.88;103215.50;5096925;27;96711;-27
2023/05/26 09:58:39;;;;;;;4.38;1.17;;;;;;;18.36;45.01;103205.25;5097192;27;97277;-28
2023/05/26 10:01:05;;;;;;;7.15;1.58;;;;;;;18.49;46.46;103219.13;5077847;27;100985;-30
2023/05/26 10:03:31;;;;;;;7.72;1.83;;;;;;;18.75;46.31;103214.00;5078199;27;100703;-27
2023/05/26 10:05:59;;;;;;;4.45;1.70;;;;;;;18.96;45.85;103203.66;5097012;27;96620;-28
2023/05/26 10:08:28;;;;;;;3.83;1.23;;;;;;;19.00;45.24;103199.75;5078429;27;96855;-28
2023/05/26 10:10:54;;;;;;;7.40;1.52;;;;;;;19.15;46.06;103204.31;5077802;27;100952;-29
2023/05/26 10:13:19;;;;;;;4.82;1.38;;;;;;;19.16;45.22;103202.44;5096508;27;97300;-28
2023/05/26 10:15:45;;;;;;;7.57;1.60;;;;;;;19.21;46.45;103203.97;5097082;27;96672;-28
2023/05/26 10:18:11;;;;;;;7.55;1.58;;;;;;;19.12;45.55;103192.66;5097156;27;96674;-28
2023/05/26 10:20:36;;;;;;;3.47;1.40;;;;;;;19.18;45.41;103190.38;5096309;27;99427;-28
2023/05/26 10:23:09;;;;;;;8.18;1.70;;;;;;;19.28;45.57;103199.88;5096739;27;97836;-28
2023/05/26 10:25:55;;;;;;;4.10;1.33;;;;;;;19.41;45.42;103201.84;5096021;27;96621;-28
2023/05/26 10:28:38;;;;;;;8.98;1.55;;;;;;;19.48;44.37;103195.00;5078018;27;96742;-29
2023/05/26 10:31:03;;;;;;;5.88;1.98;;;;;;;19.39;44.58;103185.44;5077720;27;101048;-28
2023/05/26 10:33:39;;;;;;;7.75;1.80;;;;;;;19.50;44.02;103198.53;5095908;27;98705;-29
2023/05/26 10:36:16;;;;;;;8.90;1.73;;;;;;;19.49;44.48;103186.63;5096893;27;96497;-27
2023/05/26 10:38:50;;;;;;;5.13;1.35;;;;;;;19.51;43.93;103195.69;5096702;27;96758;-28
2023/05/26 10:41:36;;;;;;;4.65;1.25;;;;;;;19.53;43.95;103195.59;5077601;27;101305;-28
2023/05/26 10:44:02;;;;;;;2.20;1.05;;;;;;;19.40;44.21;103208.31;5077990;27;100736;-28
2023/05/26 10:46:47;;;;;;;7.20;1.33;;;;;;;19.48;42.97;103206.88;5077953;27;96584;-28
2023/05/26 10:49:23;;;;;;;6.57;1.27;;;;;;;19.52;43.65;103191.06;5078010;27;96695;-28
2023/05/26 10:51:51;;;;;;;5.47;1.58;;;;;;;19.56;43.54;103189.03;5076249;27;101401;-28
2023/05/26 10:54:21;;;;;;;4.30;1.35;;;;;;;19.67;42.63;103195.63;5076950;27;101263;-29
2023/05/26 10:56:49;;;;;;;10.98;1.60;;;;;;;19.62;42.21;103191.41;5077600;27;96651;-28
2023/05/26 10:59:22;;;;;;;4.00;1.20;;;;;;;19.60;41.70;103196.09;5096626;27;96847;-28
2023/05/26 11:01:54;;;;;;;4.63;1.13;;;;;;;19.53;42.73;103190.97;5077265;27;101596;-28
2023/05/26 11:04:21;;;;;;;6.50;1.70;;;;;;;19.68;42.58;103189.16;5077206;27;100774;-28
2023/05/26 11:07:00;;;;;;;5.97;1.67;;;;;;;19.62;41.88;103189.53;5075833;27;97850;-28
2023/05/26 11:09:27;;;;;;;6.38;1.42;;;;;;;19.78;42.50;103189.47;5086969;27;96881;-28
2023/05/26 11:11:54;;;;;;;5.00;1.38;;;;;;;19.86;42.91;103191.75;5069353;27;101150;-29
2023/05/26 11:14:29;;;;;;;4.63;1.42;;;;;;;19.91;42.65;103182.22;5073303;27;101420;-28
2023/05/26 11:16:57;;;;;;;6.43;1.60;;;;;;;20.00;43.37;103190.84;5091976;27;97132;-30
2023/05/26 11:19:30;;;;;;;7.88;1.52;;;;;;;19.79;42.78;103182.13;5095502;27;96752;-28
2023/05/26 11:21:57;;;;;;;3.60;1.30;;;;;;;19.96;43.04;103183.78;5094802;27;98931;-28